Tiempo atmosférico en la estación meteorológica de Mutriku, Gipuzkoa (150 m.)



Fecha
DESCASC
Temp. máxima en grados centígrados (hora)
DESCASC
Temp. mínima en grados centígrados (hora)
DESCASC
Temp. media en grados centígrados
DESCASC
Racha de viento máxima en m/sg (hora)
DESCASC
Velocidad máxima media en intervalos de 10 minutos(hora)
DESCASC
Precipitaciones diarias en mm
DESCASC
Precipitaciones de 00:00 a 06:00 en mm
DESCASC
Precipitaciones de 06:00 a 12:00 en mm
DESCASC
Precipitaciones de 12:00 a 18:00 en mm
DESCASC
Precipitaciones de 18:00 a 24:00 en mm
DESCASC
28-02-2021 11.5 (12:10) 7.6 (06:30) 9.5 7.5 (21:20) 4.72 (03:20) 0.6 0 0 0.2 0.4
27-02-2021 10.8 (05:30) 8.2 (19:30) 9.5 8.61 (08:10) 4.72 (08:00) 0 0 0 0 0
26-02-2021 12.4 (13:50) 10.4 (22:50) 11.4 5 (22:20) 2.78 (00:50) 0 0 0 0 0
25-02-2021 16.1 (00:00) 10.9 (00:00) 13.5 11.94 (07:40) 6.39 (07:40) 0 0 0 0 0
24-02-2021 20.7 (15:30) 13.1 (00:00) 16.9 13.33 (20:30) 6.67 (20:30) 0 0 0 0 0
23-02-2021 18.4 (15:30) 8.6 (00:00) 13.5 13.89 (14:40) 5.83 (14:40) 0 0 0 0 0
22-02-2021 11 (15:20) 7.2 (00:00) 9.1 11.39 (06:50) 7.78 (06:50) 25.4 13.2 10.6 1.6 0
21-02-2021 17.4 (00:00) 8 (00:00) 12.7 20.83 (07:40) 10.56 (07:40) 7.4 0 0 0 7.4
20-02-2021 21.9 (14:40) 16.1 (00:00) 19 19.17 (09:50) 8.06 (08:50) 0 0 0 0 0
19-02-2021 20.7 (15:40) 9 (00:00) 14.9 17.5 (09:00) 9.17 (10:40) 0 0 0 0 0
18-02-2021 18.2 (01:50) 9 (00:00) 13.6 17.78 (02:30) 7.78 (02:30) 0.4 0 0 0 0.4
17-02-2021 19.6 (15:10) 10.1 (00:00) 14.9 14.72 (14:20) 6.11 (14:00) 0 0 0 0 0
16-02-2021 17.5 (13:30) 10.3 (00:00) 13.9 16.39 (01:50) 8.61 (12:30) 0.8 0 0 0 0.8
15-02-2021 18.5 (14:20) 11.8 (00:00) 15.2 17.5 (09:10) 10.28 (04:40) 0 0 0 0 0
14-02-2021 18.3 (15:10) 9.6 (00:00) 13.9 19.17 (21:10) 9.17 (23:00) 0 0 0 0 0
13-02-2021 14.3 (13:20) 9.4 (00:00) 11.8 5.56 (02:20) 3.61 (02:20) 0 0 0 0 0
12-02-2021 17.6 (04:20) 10.5 (00:00) 14.1 15.28 (14:30) 9.17 (14:30) 7.8 0 4.6 3.2 0
11-02-2021 18.2 (14:40) 8.9 (00:00) 13.6 9.17 (10:20) 5.28 (13:50) 0 0 0 0 0
10-02-2021 11.8 (16:40) 8.1 (00:00) 10 15.28 (12:00) 8.61 (12:00) 0.2 0 0.2 0 0
09-02-2021 14.2 (12:20) 9.9 (00:00) 12 17.22 (09:10) 8.89 (08:40) 0.8 0 0 0.6 0.2
08-02-2021 14 (14:20) 9.1 (00:00) 11.6 13.33 (00:20) 8.06 (03:50) 0.8 0.2 0.2 0 0.4
07-02-2021 11.1 (14:40) 6 (00:00) 8.6 13.33 (06:20) 7.5 (06:50) 1.4 0.2 0 0.2 1
06-02-2021 10.7 (02:40) 6.1 (00:00) 8.4 15 (14:20) 8.33 (14:20) 41 0.2 15.4 24 1.4
05-02-2021 11.3 (13:20) 10.1 (00:00) 10.7 4.72 (05:20) 2.5 (14:50) 1.2 0.4 0.8 0 0
04-02-2021 15 (05:00) 10.1 (00:00) 12.6 10.56 (01:10) 5.83 (04:50) 1.6 0 0 0 1.6
03-02-2021 17.2 (00:30) 11.6 (00:00) 14.4 18.89 (04:20) 9.17 (04:20) 0 0 0 0 0
02-02-2021 19.1 (14:00) 13.6 (00:00) 16.4 18.61 (23:40) 7.5 (16:00) 0.2 0 0 0 0.2
01-02-2021 15 (17:00) 12.4 (00:00) 13.7 22.5 (00:30) 12.78 (00:30) 1.8 0 0 0 1.8

Gráficas

Temp. máximas Temp. mínimas Temp. medias Precipitaciones Rachas de viento máximas Velocidades máximas media en intervalos de 10 minutos

Datos horarios

Fecha y hora oficial Temperatura (ºC) Velocidad del viento (km/h) Dirección del viento Racha (km/h) Dirección de racha Precipitación (mm) Presión (hPa) Tendencia (hPa) Humedad (%)
2021-03-02 23:00:00 14.3 14 Sur 27 Sur 0 -- -- 56
2021-03-02 22:00:00 14.3 10 Sudoeste 26 Sur 0 -- -- 57
2021-03-02 21:00:00 14.8 9 Sudoeste 23 Sudeste 0 -- -- 55
2021-03-02 20:00:00 15 5 Este 30 Sur 0 -- -- 55
2021-03-02 19:00:00 15.6 9 Sur 25 Sur 0 -- -- 53
2021-03-02 18:00:00 16.5 10 Sudeste 36 Sur 0 -- -- 51
2021-03-02 17:00:00 17.5 13 Sudoeste 40 Sudoeste 0 -- -- 48
2021-03-02 16:00:00 17.5 13 Sur 41 Sur 0 -- -- 49
2021-03-02 15:00:00 17.6 14 Sur 45 Oeste 0 -- -- 49
2021-03-02 14:00:00 17.6 15 Sur 44 Sur 0 -- -- 48
2021-03-02 13:00:00 16.5 18 Sudoeste 42 Sur 0 -- -- 53
2021-03-02 12:00:00 16.4 15 Sudoeste 46 Sudoeste 0 -- -- 53
2021-03-02 11:00:00 15.1 17 Sudoeste 56 Sur 0 -- -- 56
2021-03-02 10:00:00 13.8 20 Sudoeste 58 Sur 0 -- -- 59
2021-03-02 09:00:00 12.7 20 Sudoeste 57 Sudeste 0 -- -- 62
2021-03-02 08:00:00 12.7 14 Sudoeste 46 Sudoeste 0 -- -- 62
2021-03-02 07:00:00 13 19 Sur 44 Sur 0 -- -- 59
2021-03-02 06:00:00 13.2 20 Sur 53 Sudeste 0 -- -- 59
2021-03-02 05:00:00 13.4 20 Sur 75 Sur 0 -- -- 58
2021-03-02 04:00:00 13.5 24 Sudoeste 63 Sur 0 -- -- 60
2021-03-02 03:00:00 13.2 23 Sudoeste 60 Sudeste 0 -- -- 61
2021-03-02 02:00:00 13.2 17 Sur 59 Sur 0 -- -- 60
2021-03-02 01:00:00 13.5 15 Sur 50 Sur 0 -- -- 59
2021-03-02 00:00:00 13.1 17 Sudeste 39 Sur 0 -- -- 61
2021-03-01 23:00:00 13 11 Sudeste 39 Sudeste 0 -- -- 62
2021-03-01 22:00:00 13.3 19 Sudeste 39 Sudeste 0 -- -- 62
2021-03-01 21:00:00 13.5 14 Sudeste 35 Sudeste 0 -- -- 60
2021-03-01 20:00:00 13.8 17 Sudeste 39 Sudeste 0 -- -- 58
2021-03-01 19:00:00 13.9 16 Sudeste 32 Este 0 -- -- 57
2021-03-01 18:00:00 13.8 12 Sudeste 37 Sudeste 0 -- -- 59
2021-03-01 17:00:00 14.2 10 Este 32 Sur 0 -- -- 59
2021-03-01 16:00:00 14.5 14 Sudeste 44 Sudeste 0 -- -- 56
2021-03-01 15:00:00 14.4 16 Sur 44 Sudeste 0 -- -- 56
2021-03-01 14:00:00 14.1 15 Sur 48 Sur 0 -- -- 56
2021-03-01 13:00:00 14.7 11 Sudeste 47 Sudeste 0 -- -- 52
2021-03-01 12:00:00 14.6 4 Norte 36 Sur 0 -- -- 56
2021-03-01 11:00:00 13.3 13 Sudoeste 49 Sudoeste 0 -- -- 56
2021-03-01 10:00:00 13.2 13 Sur 53 Sudeste 0 -- -- 56
2021-03-01 09:00:00 12.6 20 Sur 51 Sur 0 -- -- 57
2021-03-01 08:00:00 12.2 21 Sudeste 51 Sur 0 -- -- 58
2021-03-01 07:00:00 12.2 19 Sudeste 47 Sudeste 0 -- -- 59
2021-03-01 06:00:00 11.9 12 Sudeste 44 Sudeste 0 -- -- 61
2021-03-01 05:00:00 11.9 16 Sudeste 39 Sur 0 -- -- 62
2021-03-01 04:00:00 12 18 Sur 46 Sur 0 -- -- 61
2021-03-01 03:00:00 11.7 12 Sudeste 40 Sudeste 0 -- -- 61
2021-03-01 02:00:00 11.9 14 Sudeste 37 Sudeste 0 -- -- 60
2021-03-01 01:00:00 11.7 15 Sudeste 30 Sudeste 0 -- -- 65
2021-03-01 00:00:00 9.9 3 Oeste 10 Este 0 -- -- 85
2021-02-28 23:00:00 10.3 3 Sudeste 13 Sudeste 0 -- -- 85
2021-02-28 22:00:00 9.5 4 Sudeste 27 Este 0 -- -- 90
2021-02-28 21:00:00 9.5 11 Este 22 Este 0 -- -- 90
2021-02-28 20:00:00 9.5 11 Este 19 Este 0.4 -- -- 90
2021-02-28 19:00:00 9.4 6 Sudeste 13 Sudeste 0 -- -- 88
2021-02-28 18:00:00 9.9 0 Calma 15 Sudeste 0 -- -- 88
2021-02-28 17:00:00 9.8 8 Este 14 Sudeste 0.2 -- -- 86
2021-02-28 16:00:00 10.7 5 Este 14 Este 0 -- -- 81
2021-02-28 15:00:00 10.5 7 Este 14 Nordeste 0 -- -- 82
2021-02-28 14:00:00 10.7 9 Este 15 Este 0 -- -- 79
2021-02-28 13:00:00 11.1 7 Este 14 Este 0 -- -- 79
2021-02-28 12:00:00 11.2 6 Nordeste 10 Nordeste 0 -- -- 80
2021-02-28 11:00:00 9.7 0 Calma 7 Oeste 0 -- -- 83
2021-02-28 10:00:00 8.9 5 Oeste 8 Oeste 0 -- -- 85
2021-02-28 09:00:00 8.3 5 Sudoeste 11 Sudoeste 0 -- -- 85
2021-02-28 08:00:00 7.9 7 Oeste 10 Oeste 0 -- -- 85
2021-02-28 07:00:00 7.8 6 Oeste 13 Sudoeste 0 -- -- 84
2021-02-28 06:00:00 7.9 10 Sudoeste 19 Sudoeste 0 -- -- 84
2021-02-28 05:00:00 7.9 13 Sudoeste 20 Sudoeste 0 -- -- 84
2021-02-28 04:00:00 8 14 Sudoeste 26 Sudoeste 0 -- -- 84
2021-02-28 03:00:00 7.9 16 Sudoeste 22 Sudoeste 0 -- -- 83
2021-02-28 02:00:00 8.1 14 Sudoeste 22 Sudoeste 0 -- -- 83
2021-02-28 01:00:00 8.4 10 Oeste 17 Oeste 0 -- -- 82
2021-02-28 00:00:00 8.4 9 Oeste 21 Sudoeste 0 -- -- 82
2021-02-27 23:00:00 8.3 12 Oeste 20 Sudoeste 0 -- -- 82
2021-02-27 22:00:00 8.3 10 Sudoeste 15 Oeste 0 -- -- 83
2021-02-27 21:00:00 8.3 8 Oeste 12 Oeste 0 -- -- 83
2021-02-27 20:00:00 8.4 4 Oeste 12 Oeste 0 -- -- 83
2021-02-27 19:00:00 8.5 5 Noroeste 16 Oeste 0 -- -- 81
2021-02-27 18:00:00 8.9 6 Noroeste 14 Noroeste 0 -- -- 78
2021-02-27 17:00:00 9.8 6 Noroeste 11 Noroeste 0 -- -- 74
2021-02-27 16:00:00 9.6 4 Noroeste 10 Norte 0 -- -- 74
2021-02-27 15:00:00 9.7 3 Noroeste 10 Norte 0 -- -- 78
2021-02-27 14:00:00 9.5 3 Noroeste 10 Nordeste 0 -- -- 83
2021-02-27 13:00:00 9.4 2 Norte 9 Norte 0 -- -- 86
2021-02-27 12:00:00 9.2 2 Norte 11 Este 0 -- -- 90
2021-02-27 11:00:00 8.7 5 Nordeste 15 Nordeste 0 -- -- 91
2021-02-27 10:00:00 9 5 Este 23 Nordeste 0 -- -- 93
2021-02-27 09:00:00 9.2 13 Nordeste 31 Este 0 -- -- 94
2021-02-27 08:00:00 10 17 Nordeste 27 Nordeste 0 -- -- 94
2021-02-27 07:00:00 10.5 13 Nordeste 24 Nordeste 0 -- -- 94
2021-02-27 06:00:00 10.7 13 Nordeste 25 Nordeste 0 -- -- 93
2021-02-27 05:00:00 10.2 7 Oeste 11 Oeste 0 -- -- 91
2021-02-27 04:00:00 10.1 5 Oeste 9 Sudoeste 0 -- -- 90
2021-02-27 03:00:00 10.1 6 Sudoeste 11 Sudoeste 0 -- -- 90
2021-02-27 02:00:00 10.2 0 Calma 4 Sur 0 -- -- 90
2021-02-27 01:00:00 10.3 3 Este 6 Sudeste 0 -- -- 90
2021-02-27 00:00:00 10.4 6 Este 12 Este 0 -- -- 91
2021-02-26 23:00:00 10.4 7 Este 18 Este 0 -- -- 91
2021-02-26 22:00:00 10.6 0 Calma 4 Nordeste 0 -- -- 90
2021-02-26 21:00:00 10.9 2 Este 4 Sudeste 0 -- -- 88
2021-02-26 20:00:00 10.9 2 Sudeste 4 Sudeste 0 -- -- 88
2021-02-26 19:00:00 11.1 3 Sudeste 5 Sudeste 0 -- -- 87
2021-02-26 18:00:00 11.6 3 Nordeste 8 Este 0 -- -- 86
2021-02-26 17:00:00 12.4 5 Este 9 Este 0 -- -- 84
2021-02-26 16:00:00 12.4 4 Este 9 Este 0 -- -- 85
2021-02-26 15:00:00 12.3 4 Nordeste 9 Nordeste 0 -- -- 85
2021-02-26 14:00:00 12.3 4 Nordeste 8 Nordeste 0 -- -- 85
2021-02-26 13:00:00 12.2 3 Nordeste 7 Nordeste 0 -- -- 87
2021-02-26 12:00:00 11.5 4 Nordeste 10 Nordeste 0 -- -- 90
2021-02-26 11:00:00 10.8 3 Nordeste 10 Nordeste 0 -- -- 91
2021-02-26 10:00:00 10.8 0 Calma 5 Nordeste 0 -- -- 92
2021-02-26 09:00:00 10.5 3 Nordeste 14 Nordeste 0 -- -- 92
2021-02-26 08:00:00 10.5 5 Nordeste 10 Nordeste 0 -- -- 93
2021-02-26 07:00:00 10.6 8 Nordeste 15 Nordeste 0 -- -- 93
2021-02-26 06:00:00 10.9 0 Calma 4 Este 0 -- -- 93
2021-02-26 05:00:00 10.9 2 Nordeste 7 Nordeste 0 -- -- 93
2021-02-26 04:00:00 11 2 Nordeste 6 Norte 0 -- -- 92
2021-02-26 03:00:00 11.1 0 Calma 6 Noroeste 0 -- -- 91
2021-02-26 02:00:00 10.9 2 Oeste 12 Oeste 0 -- -- 91
2021-02-26 01:00:00 10.9 5 Oeste 13 Oeste 0 -- -- 93
2021-02-26 00:00:00 10.9 8 Oeste 12 Oeste 0 -- -- 92
2021-02-25 23:00:00 11.1 4 Oeste 9 Sudoeste 0 -- -- 90
2021-02-25 22:00:00 11.3 6 Sudoeste 8 Sudoeste 0 -- -- 89
2021-02-25 21:00:00 11.4 0 Calma 3 Sur 0 -- -- 88
2021-02-25 20:00:00 11.5 2 Sudeste 5 Sur 0 -- -- 90
2021-02-25 19:00:00 11.7 0 Calma 2 Sudoeste 0 -- -- 90
2021-02-25 18:00:00 11.9 0 Calma 8 Oeste 0 -- -- 90
2021-02-25 17:00:00 12 3 Noroeste 9 Norte 0 -- -- 90
2021-02-25 16:00:00 12.4 3 Noroeste 9 Noroeste 0 -- -- 89
2021-02-25 15:00:00 12.7 5 Noroeste 14 Noroeste 0 -- -- 87
2021-02-25 14:00:00 13.3 7 Noroeste 13 Noroeste 0 -- -- 81
2021-02-25 13:00:00 14.5 7 Nordeste 14 Nordeste 0 -- -- 74
2021-02-25 12:00:00 14.5 6 Nordeste 14 Norte 0 -- -- 69
2021-02-25 11:00:00 14.7 4 Sudeste 30 Sudoeste 0 -- -- 57
2021-02-25 10:00:00 14.2 12 Sudoeste 30 Sur 0 -- -- 54
2021-02-25 09:00:00 13.3 7 Sudoeste 28 Sur 0 -- -- 56
2021-02-25 08:00:00 13.5 11 Este 43 Sur 0 -- -- 56
2021-02-25 07:00:00 13.8 17 Sur 39 Sur 0 -- -- 55
2021-02-25 06:00:00 13.8 10 Oeste 31 Sur 0 -- -- 56
2021-02-25 05:00:00 13.9 15 Sudoeste 34 Sur 0 -- -- 59
2021-02-25 04:00:00 13.9 6 Sur 15 Sur 0 -- -- 62
2021-02-25 03:00:00 14.2 5 Sur 12 Oeste 0 -- -- 64
2021-02-25 02:00:00 15.1 6 Sur 22 Sudoeste 0 -- -- 61
2021-02-25 01:00:00 15.6 8 Sur 39 Sur 0 -- -- 60
2021-02-25 00:00:00 16.1 7 Sudoeste 36 Sur 0 -- -- 60
2021-02-24 23:00:00 16.5 19 Sur 43 Sur 0 -- -- 59
2021-02-24 22:00:00 16.7 14 Sur 42 Sudeste 0 -- -- 58
2021-02-24 21:00:00 16.8 21 Sur 48 Sur 0 -- -- 57
2021-02-24 20:00:00 17.2 18 Sur 40 Sur 0 -- -- 56
2021-02-24 19:00:00 17.8 5 Noroeste 27 Sudeste 0 -- -- 54
2021-02-24 18:00:00 19.1 7 Sudeste 27 Sur 0 -- -- 49
2021-02-24 17:00:00 19.9 9 Sur 35 Sur 0 -- -- 48
2021-02-24 16:00:00 20.2 13 Sur 29 Sur 0 -- -- 46
2021-02-24 15:00:00 20.3 10 Sur 33 Sudeste 0 -- -- 45
2021-02-24 14:00:00 20 10 Sudeste 33 Sudeste 0 -- -- 46
2021-02-24 13:00:00 18.9 16 Sur 37 Sudeste 0 -- -- 48
2021-02-24 12:00:00 17.8 17 Sudeste 30 Sudeste 0 -- -- 51
2021-02-24 11:00:00 16.6 9 Sudoeste 28 Sur 0 -- -- 53
2021-02-24 10:00:00 15.4 4 Nordeste 15 Este 0 -- -- 55
2021-02-24 09:00:00 14.1 6 Sur 21 Sur 0 -- -- 58
2021-02-24 08:00:00 13.3 4 Oeste 14 Sur 0 -- -- 60
2021-02-24 07:00:00 13.4 3 Este 12 Sur 0 -- -- 59
2021-02-24 06:00:00 14 6 Sudeste 20 Sur 0 -- -- 58
2021-02-24 05:00:00 14 6 Sudoeste 32 Sur 0 -- -- 59
2021-02-24 04:00:00 14.8 14 Sur 46 Sur 0 -- -- 59
2021-02-24 03:00:00 15 17 Sur 38 Sur 0 -- -- 58
2021-02-24 02:00:00 15 16 Sur 45 Sudeste 0 -- -- 58
2021-02-24 01:00:00 14.8 16 Sur 39 Sur 0 -- -- 58
2021-02-24 00:00:00 14.9 9 Este 28 Sudoeste 0 -- -- 56
2021-02-23 23:00:00 14.8 10 Sur 26 Sur 0 -- -- 56
2021-02-23 22:00:00 14.9 10 Sur 31 Sur 0 -- -- 57
2021-02-23 21:00:00 14.8 10 Sur 40 Sudeste 0 -- -- 57
2021-02-23 20:00:00 15 12 Sudeste 30 Sudeste 0 -- -- 54
2021-02-23 19:00:00 15.7 12 Sur 38 Sur 0 -- -- 51
2021-02-23 18:00:00 17.3 13 Sudeste 30 Sur 0 -- -- 45
2021-02-23 17:00:00 18.1 11 Sudeste 31 Sudeste 0 -- -- 42
2021-02-23 16:00:00 18.4 15 Sudeste 33 Sur 0 -- -- 42
2021-02-23 15:00:00 18 12 Sudeste 50 Sudeste 0 -- -- 44
2021-02-23 14:00:00 17.3 15 Sudeste 45 Sur 0 -- -- 47
2021-02-23 13:00:00 16.5 15 Sudeste 36 Sudeste 0 -- -- 48
2021-02-23 12:00:00 15.5 9 Sur 38 Sur 0 -- -- 51
2021-02-23 11:00:00 15 12 Sur 31 Sur 0 -- -- 53
2021-02-23 10:00:00 12.9 5 Noroeste 15 Sudeste 0 -- -- 61
2021-02-23 09:00:00 11.1 5 Oeste 13 Sur 0 -- -- 66
2021-02-23 08:00:00 10.1 3 Noroeste 13 Sur 0 -- -- 69
2021-02-23 07:00:00 10.2 5 Sudeste 17 Sudeste 0 -- -- 69
2021-02-23 06:00:00 10 6 Sudeste 17 Este 0 -- -- 71
2021-02-23 05:00:00 9.7 4 Sudeste 18 Sur 0 -- -- 74
2021-02-23 04:00:00 8.8 9 Este 18 Sudeste 0 -- -- 77
2021-02-23 03:00:00 9.7 9 Sudeste 21 Sudeste 0 -- -- 73
2021-02-23 02:00:00 9.3 8 Sudoeste 20 Sur 0 -- -- 76
2021-02-23 01:00:00 9 8 Sur 14 Sur 0 -- -- 79
2021-02-23 00:00:00 8.6 8 Sur 14 Sudoeste 0 -- -- 83
2021-02-22 23:00:00 8.8 8 Sudoeste 17 Sudeste 0 -- -- 82
2021-02-22 22:00:00 9.3 10 Sudeste 16 Sur 0 -- -- 83
2021-02-22 21:00:00 9.3 8 Sur 11 Sur 0 -- -- 84
2021-02-22 20:00:00 9.6 5 Sudoeste 10 Sudoeste 0 -- -- 85
2021-02-22 19:00:00 9.9 6 Sudoeste 10 Oeste 0 -- -- 84
2021-02-22 18:00:00 10.1 7 Oeste 15 Oeste 0 -- -- 83
2021-02-22 17:00:00 10.5 10 Oeste 18 Noroeste 0 -- -- 82
2021-02-22 16:00:00 11 7 Noroeste 16 Oeste 0 -- -- 85
2021-02-22 15:00:00 10.6 9 Noroeste 22 Oeste 0 -- -- 88
2021-02-22 14:00:00 9.5 14 Oeste 24 Oeste 0.4 -- -- 91
2021-02-22 13:00:00 9.1 13 Oeste 25 Oeste 1.2 -- -- 91
2021-02-22 12:00:00 8.9 14 Oeste 24 Oeste 1.4 -- -- 92
2021-02-22 11:00:00 8.3 14 Oeste 26 Oeste 1 -- -- 92
2021-02-22 10:00:00 8.2 12 Oeste 31 Oeste 0.6 -- -- 92
2021-02-22 09:00:00 7.9 21 Oeste 33 Oeste 1.4 -- -- 92
2021-02-22 08:00:00 7.6 19 Oeste 40 Oeste 2.6 -- -- 92
2021-02-22 07:00:00 7.6 27 Oeste 41 Oeste 3.6 -- -- 92
2021-02-22 06:00:00 7.4 22 Oeste 38 Oeste 3.2 -- -- 92
2021-02-22 05:00:00 7.3 24 Oeste 35 Sudoeste 1.4 -- -- 92
2021-02-22 04:00:00 7.3 19 Oeste 33 Sudoeste 0.8 -- -- 92
2021-02-22 03:00:00 7.3 19 Oeste 36 Oeste 3.2 -- -- 92
2021-02-22 02:00:00 7.3 23 Oeste 38 Oeste 2.4 -- -- 92
2021-02-22 01:00:00 7.4 19 Oeste 34 Oeste 2.2 -- -- 92
2021-02-22 00:00:00 8 18 Oeste 29 Oeste 4.2 -- -- 92
2021-02-21 23:00:00 8.7 16 Oeste 24 Oeste 2 -- -- 91
2021-02-21 22:00:00 9.8 13 Oeste 26 Noroeste 1.2 -- -- 88
2021-02-21 21:00:00 9.9 15 Noroeste 26 Oeste 0 -- -- 89
2021-02-21 20:00:00 10.4 15 Noroeste 39 Noroeste 0 -- -- 90
2021-02-21 19:00:00 10.6 22 Noroeste 42 Noroeste 0 -- -- 88
2021-02-21 18:00:00 14.9 3 Sudeste 36 Sur 0 -- -- 59
2021-02-21 17:00:00 15 6 Sur 39 Sur 0 -- -- 57
2021-02-21 16:00:00 15 15 Sur 44 Sudeste 0 -- -- 56
2021-02-21 15:00:00 16 13 Sudeste 42 Sudeste 0 -- -- 50
2021-02-21 14:00:00 16.7 14 Sudeste 39 Sur 0 -- -- 43
2021-02-21 13:00:00 16.9 21 Sur 51 Sudoeste 0 -- -- 40
2021-02-21 12:00:00 16.2 30 Sur 60 Sur 0 -- -- 39
2021-02-21 11:00:00 15.6 26 Sur 64 Sur 0 -- -- 38
2021-02-21 10:00:00 15.5 30 Sur 63 Sudoeste 0 -- -- 39
2021-02-21 09:00:00 14.7 33 Sur 71 Sur 0 -- -- 41
2021-02-21 08:00:00 14.4 32 Sudeste 75 Sudeste 0 -- -- 42
2021-02-21 07:00:00 14.6 28 Sudeste 64 Sur 0 -- -- 42
2021-02-21 06:00:00 14.4 31 Sudeste 69 Sudeste 0 -- -- 43
2021-02-21 05:00:00 14.7 31 Sudeste 68 Sur 0 -- -- 42
2021-02-21 04:00:00 15.1 13 Sur 55 Sur 0 -- -- 41
2021-02-21 03:00:00 15.5 17 Sur 52 Sudeste 0 -- -- 41
2021-02-21 02:00:00 16.1 22 Sur 58 Sur 0 -- -- 41
2021-02-21 01:00:00 16.6 23 Sudeste 50 Sur 0 -- -- 41
2021-02-21 00:00:00 17.4 19 Sudeste 51 Sudeste 0 -- -- 40
2021-02-20 23:00:00 18.3 17 Sur 50 Sur 0 -- -- 38
2021-02-20 22:00:00 18.2 13 Sudeste 41 Sudeste 0 -- -- 37
2021-02-20 21:00:00 18.3 16 Sudeste 38 Este 0 -- -- 39
2021-02-20 20:00:00 19.4 15 Sudeste 46 Sudeste 0 -- -- 36
2021-02-20 19:00:00 20 12 Sudeste 47 Sur 0 -- -- 32
2021-02-20 18:00:00 21.3 18 Sur 45 Sur 0 -- -- 31
2021-02-20 17:00:00 21.7 18 Sur 45 Sur 0 -- -- 28
2021-02-20 16:00:00 21.1 20 Sur 46 Sur 0 -- -- 28
2021-02-20 15:00:00 21.7 18 Sur 46 Sudeste 0 -- -- 28
2021-02-20 14:00:00 20.9 13 Sur 44 Sudeste 0 -- -- 30
2021-02-20 13:00:00 20.7 21 Sur 62 Sur 0 -- -- 30
2021-02-20 12:00:00 20.1 21 Sur 57 Sudeste 0 -- -- 33
2021-02-20 11:00:00 18.2 19 Sur 63 Sur 0 -- -- 34
2021-02-20 10:00:00 18.3 26 Sur 69 Sur 0 -- -- 32
2021-02-20 09:00:00 18.2 25 Sur 59 Sur 0 -- -- 31
2021-02-20 08:00:00 17.8 14 Sur 37 Sudeste 0 -- -- 31
2021-02-20 07:00:00 16.3 12 Sudeste 40 Sur 0 -- -- 36
2021-02-20 06:00:00 16.9 15 Sur 33 Sur 0 -- -- 35
2021-02-20 05:00:00 16.3 5 Sudeste 18 Sudeste 0 -- -- 36
2021-02-20 04:00:00 17 5 Sudeste 24 Sur 0 -- -- 35
2021-02-20 03:00:00 17.7 8 Sur 25 Sudoeste 0 -- -- 33
2021-02-20 02:00:00 17.2 5 Sur 24 Sudoeste 0 -- -- 33
2021-02-20 01:00:00 17.2 7 Sur 19 Sudeste 0 -- -- 35
2021-02-20 00:00:00 16.6 10 Sudeste 18 Sudeste 0 -- -- 40
2021-02-19 23:00:00 17.8 10 Sudeste 31 Sur 0 -- -- 37
2021-02-19 22:00:00 18.1 6 Sudeste 20 Sur 0 -- -- 38
2021-02-19 21:00:00 18.3 9 Sur 22 Sur 0 -- -- 38
2021-02-19 20:00:00 18.1 7 Sudeste 18 Sudeste 0 -- -- 40
2021-02-19 19:00:00 18.6 7 Sudeste 19 Sur 0 -- -- 40
2021-02-19 18:00:00 20.1 11 Sur 35 Sur 0 -- -- 35
2021-02-19 17:00:00 20.3 15 Sudoeste 49 Sudoeste 0 -- -- 33
2021-02-19 16:00:00 20.2 11 Sudoeste 61 Sudoeste 0 -- -- 34
2021-02-19 15:00:00 20.1 12 Oeste 53 Sur 0 -- -- 33
2021-02-19 14:00:00 19.3 21 Oeste 57 Noroeste 0 -- -- 35
2021-02-19 13:00:00 18.7 19 Sudoeste 58 Oeste 0 -- -- 36
2021-02-19 12:00:00 18.1 24 Sudoeste 57 Oeste 0 -- -- 41
2021-02-19 11:00:00 17.3 25 Sudoeste 59 Sudoeste 0 -- -- 44
2021-02-19 10:00:00 16.1 18 Sudoeste 55 Sudoeste 0 -- -- 47
2021-02-19 09:00:00 15.6 32 Oeste 63 Oeste 0 -- -- 47
2021-02-19 08:00:00 15.2 20 Sudoeste 42 Sur 0 -- -- 49
2021-02-19 07:00:00 15 18 Oeste 42 Sur 0 -- -- 53
2021-02-19 06:00:00 15.3 17 Sudoeste 50 Sudoeste 0 -- -- 53
2021-02-19 05:00:00 15.2 9 Sudoeste 33 Oeste 0 -- -- 53
2021-02-19 04:00:00 15.1 8 Sudoeste 36 Oeste 0 -- -- 55
2021-02-19 03:00:00 14.9 12 Oeste 40 Sudoeste 0 -- -- 59
2021-02-19 02:00:00 14.2 8 Oeste 22 Sur 0 -- -- 61
2021-02-19 01:00:00 10.5 3 Sur 10 Sudeste 0 -- -- 86
2021-02-19 00:00:00 9 3 Oeste 15 Sudeste 0 -- -- 87
2021-02-18 23:00:00 9.7 8 Sudeste 19 Sudeste 0 -- -- 85
2021-02-18 22:00:00 9.8 7 Sudeste 13 Sudeste 0 -- -- 87
2021-02-18 21:00:00 9.8 4 Sur 13 Sudeste 0 -- -- 87
2021-02-18 20:00:00 10 4 Sudeste 8 Sudoeste 0.4 -- -- 84
2021-02-18 19:00:00 10.3 0 Calma 8 Noroeste 0 -- -- 82
2021-02-18 18:00:00 10.4 4 Noroeste 13 Noroeste 0 -- -- 83
2021-02-18 17:00:00 10.8 9 Noroeste 22 Noroeste 0 -- -- 84
2021-02-18 16:00:00 10.9 10 Noroeste 23 Oeste 0 -- -- 86
2021-02-18 15:00:00 11.1 9 Noroeste 32 Oeste 0 -- -- 85
2021-02-18 14:00:00 11.4 18 Noroeste 36 Noroeste 0 -- -- 83
2021-02-18 13:00:00 12.1 16 Noroeste 40 Noroeste 0 -- -- 82
2021-02-18 12:00:00 13.6 20 Noroeste 40 Noroeste 0 -- -- 76
2021-02-18 11:00:00 17.1 10 Oeste 27 Oeste 0 -- -- 40
2021-02-18 10:00:00 16.2 9 Sudoeste 28 Sudoeste 0 -- -- 43
2021-02-18 09:00:00 16 15 Sudoeste 37 Sudoeste 0 -- -- 43
2021-02-18 08:00:00 16.1 19 Sudoeste 63 Sudoeste 0 -- -- 43
2021-02-18 07:00:00 16.3 18 Sudoeste 51 Sudoeste 0 -- -- 44
2021-02-18 06:00:00 16.7 19 Sudoeste 44 Sur 0 -- -- 41
2021-02-18 05:00:00 16.9 15 Sur 47 Sudoeste 0 -- -- 42
2021-02-18 04:00:00 17.1 14 Sudoeste 45 Oeste 0 -- -- 44
2021-02-18 03:00:00 17.7 20 Oeste 64 Oeste 0 -- -- 44
2021-02-18 02:00:00 18.2 17 Sudoeste 41 Sudoeste 0 -- -- 42
2021-02-18 01:00:00 16.9 9 Sur 32 Sur 0 -- -- 50
2021-02-18 00:00:00 16.8 12 Sur 27 Sur 0 -- -- 51
2021-02-17 23:00:00 16.9 7 Sudoeste 27 Sur 0 -- -- 52
2021-02-17 22:00:00 16.6 8 Sur 27 Sudeste 0 -- -- 54
2021-02-17 21:00:00 16.8 6 Sur 22 Sur 0 -- -- 54
2021-02-17 20:00:00 17.5 12 Sudoeste 34 Sudoeste 0 -- -- 53
2021-02-17 19:00:00 17.5 12 Sudoeste 30 Sudoeste 0 -- -- 52
2021-02-17 18:00:00 17.7 14 Sudoeste 33 Sudoeste 0 -- -- 51
2021-02-17 17:00:00 18.1 9 Sur 29 Sudoeste 0 -- -- 50
2021-02-17 16:00:00 17.9 6 Sudoeste 39 Sudoeste 0 -- -- 49
2021-02-17 15:00:00 19.5 14 Sudoeste 53 Sudoeste 0 -- -- 45
2021-02-17 14:00:00 18.7 22 Oeste 41 Oeste 0 -- -- 46
2021-02-17 13:00:00 18 13 Oeste 38 Sudoeste 0 -- -- 52
2021-02-17 12:00:00 17 11 Sudoeste 26 Sudoeste 0 -- -- 55
2021-02-17 11:00:00 15.6 8 Sudoeste 23 Oeste 0 -- -- 57
2021-02-17 10:00:00 14.7 7 Sudoeste 21 Sudoeste 0 -- -- 60
2021-02-17 09:00:00 13.1 4 Sur 15 Sur 0 -- -- 66
2021-02-17 08:00:00 12.7 8 Sudoeste 19 Oeste 0 -- -- 68
2021-02-17 07:00:00 12.7 7 Oeste 15 Sur 0 -- -- 67
2021-02-17 06:00:00 12.1 6 Sudoeste 12 Sur 0 -- -- 69
2021-02-17 05:00:00 11.4 3 Sudoeste 15 Sur 0 -- -- 72
2021-02-17 04:00:00 11.3 7 Sudoeste 13 Sudoeste 0 -- -- 75
2021-02-17 03:00:00 10.6 9 Sudeste 17 Sudeste 0 -- -- 74
2021-02-17 02:00:00 10.4 10 Sudeste 16 Sudeste 0 -- -- 76
2021-02-17 01:00:00 10.1 8 Sudeste 15 Este 0 -- -- 79
2021-02-17 00:00:00 10.5 9 Sudeste 15 Sudeste 0 -- -- 78
2021-02-16 23:00:00 10.3 8 Sudeste 12 Sudeste 0 -- -- 82
2021-02-16 22:00:00 10.7 7 Sur 12 Sur 0 -- -- 81
2021-02-16 21:00:00 10.9 4 Sur 10 Sur 0.8 -- -- 81
2021-02-16 20:00:00 12.3 0 Calma 8 Este 0 -- -- 70
2021-02-16 19:00:00 12.6 2 Este 5 Sur 0 -- -- 72
2021-02-16 18:00:00 13.1 4 Sur 9 Sur 0 -- -- 71
2021-02-16 17:00:00 12.9 5 Sudoeste 12 Sudoeste 0 -- -- 72
2021-02-16 16:00:00 12.2 8 Oeste 18 Noroeste 0 -- -- 75
2021-02-16 15:00:00 13 15 Noroeste 39 Noroeste 0 -- -- 73
2021-02-16 14:00:00 13 28 Noroeste 47 Noroeste 0 -- -- 72
2021-02-16 13:00:00 17 23 Oeste 57 Oeste 0 -- -- 47
2021-02-16 12:00:00 16.3 30 Oeste 52 Oeste 0 -- -- 45
2021-02-16 11:00:00 15.4 21 Sudoeste 38 Sudoeste 0 -- -- 47
2021-02-16 10:00:00 14.3 9 Noroeste 41 Oeste 0 -- -- 52
2021-02-16 09:00:00 13.8 18 Oeste 42 Sur 0 -- -- 52
2021-02-16 08:00:00 12.2 3 Nordeste 19 Oeste 0 -- -- 58
2021-02-16 07:00:00 12.7 8 Nordeste 43 Sur 0 -- -- 56
2021-02-16 06:00:00 13.4 12 Oeste 55 Sudoeste 0 -- -- 53
2021-02-16 05:00:00 13.8 13 Sudoeste 42 Sudeste 0 -- -- 53
2021-02-16 04:00:00 13.7 17 Sur 45 Sur 0 -- -- 55
2021-02-16 03:00:00 14 15 Sudoeste 45 Sur 0 -- -- 54
2021-02-16 02:00:00 14.1 15 Sudoeste 59 Oeste 0 -- -- 55
2021-02-16 01:00:00 13.9 16 Sudoeste 37 Sudoeste 0 -- -- 55
2021-02-16 00:00:00 14 16 Sudeste 41 Sudoeste 0 -- -- 54
2021-02-15 23:00:00 13.8 10 Nordeste 34 Sudoeste 0 -- -- 56
2021-02-15 22:00:00 13.4 8 Nordeste 31 Oeste 0 -- -- 57
2021-02-15 21:00:00 12.9 8 Sudeste 23 Sur 0 -- -- 60
2021-02-15 20:00:00 13 6 Sur 28 Sudoeste 0 -- -- 60
2021-02-15 19:00:00 13.5 5 Sur 32 Sudeste 0 -- -- 57
2021-02-15 18:00:00 15.6 4 Este 32 Sur 0 -- -- 50
2021-02-15 17:00:00 17.3 7 Nordeste 30 Sudeste 0 -- -- 47
2021-02-15 16:00:00 18 11 Sudeste 31 Oeste 0 -- -- 47
2021-02-15 15:00:00 17.8 16 Oeste 46 Sudoeste 0 -- -- 46
2021-02-15 14:00:00 17 6 Oeste 42 Oeste 0 -- -- 50
2021-02-15 13:00:00 15.9 15 Oeste 54 Sudoeste 0 -- -- 50
2021-02-15 12:00:00 15 25 Sudoeste 58 Sudoeste 0 -- -- 53
2021-02-15 11:00:00 14 28 Sudoeste 58 Sudoeste 0 -- -- 55
2021-02-15 10:00:00 12.4 35 Oeste 63 Oeste 0 -- -- 60
2021-02-15 09:00:00 12.2 31 Oeste 56 Oeste 0 -- -- 60
2021-02-15 08:00:00 11.8 32 Oeste 62 Oeste 0 -- -- 61
2021-02-15 07:00:00 12.1 29 Sudoeste 58 Sudoeste 0 -- -- 60
2021-02-15 06:00:00 12.5 32 Oeste 57 Sudoeste 0 -- -- 59
2021-02-15 05:00:00 12.2 33 Oeste 60 Sudoeste 0 -- -- 61
2021-02-15 04:00:00 12.2 34 Oeste 55 Sudoeste 0 -- -- 62
2021-02-15 03:00:00 12.6 23 Oeste 57 Sudoeste 0 -- -- 61
2021-02-15 02:00:00 12.7 26 Oeste 56 Oeste 0 -- -- 62
2021-02-15 01:00:00 13.3 20 Sudoeste 59 Oeste 0 -- -- 60
2021-02-15 00:00:00 13.5 24 Sudoeste 58 Sudoeste 0 -- -- 60
2021-02-14 23:00:00 13.8 33 Oeste 60 Sudoeste 0 -- -- 59
2021-02-14 22:00:00 14.2 28 Oeste 69 Sur 0 -- -- 58
2021-02-14 21:00:00 14.4 20 Sudoeste 53 Sudoeste 0 -- -- 59
2021-02-14 20:00:00 14.6 21 Sudoeste 50 Sudoeste 0 -- -- 58
2021-02-14 19:00:00 14.7 21 Sur 49 Sudeste 0 -- -- 58
2021-02-14 18:00:00 15.6 16 Oeste 45 Oeste 0 -- -- 56
2021-02-14 17:00:00 17.1 22 Sudoeste 44 Sudoeste 0 -- -- 50
2021-02-14 16:00:00 17.7 13 Oeste 41 Sur 0 -- -- 49
2021-02-14 15:00:00 17.9 8 Sudeste 38 Sur 0 -- -- 51
2021-02-14 14:00:00 17.6 10 Oeste 36 Sudoeste 0 -- -- 49
2021-02-14 13:00:00 16.9 10 Sur 41 Sudeste 0 -- -- 53
2021-02-14 12:00:00 15.6 10 Noroeste 35 Sur 0 -- -- 59
2021-02-14 11:00:00 14.5 12 Sur 32 Sur 0 -- -- 63
2021-02-14 10:00:00 13.7 12 Sur 30 Sur 0 -- -- 65
2021-02-14 09:00:00 12.1 10 Oeste 21 Oeste 0 -- -- 69
2021-02-14 08:00:00 11.9 3 Sudoeste 13 Sur 0 -- -- 68
2021-02-14 07:00:00 11.1 5 Sur 12 Sur 0 -- -- 70
2021-02-14 06:00:00 10.8 0 Calma 6 Sudoeste 0 -- -- 71
2021-02-14 05:00:00 11 0 Calma 5 Oeste 0 -- -- 70
2021-02-14 04:00:00 10.7 0 Calma 9 Sur 0 -- -- 71
2021-02-14 03:00:00 11 5 Sudoeste 10 Sudoeste 0 -- -- 70
2021-02-14 02:00:00 10.2 3 Sur 10 Sudeste 0 -- -- 70
2021-02-14 01:00:00 9.8 3 Sudeste 10 Sudeste 0 -- -- 76
2021-02-14 00:00:00 9.6 7 Sudeste 10 Este 0 -- -- 80
2021-02-13 23:00:00 10 4 Este 5 Sudeste 0 -- -- 79
2021-02-13 22:00:00 10.1 4 Sudeste 12 Sudeste 0 -- -- 79
2021-02-13 21:00:00 9.5 3 Sudeste 9 Sudeste 0 -- -- 82
2021-02-13 20:00:00 9.6 7 Este 10 Sur 0 -- -- 84
2021-02-13 19:00:00 10.3 7 Sudeste 10 Sudeste 0 -- -- 82
2021-02-13 18:00:00 12.5 4 Sudeste 5 Sudeste 0 -- -- 74
2021-02-13 17:00:00 13.6 3 Este 8 Este 0 -- -- 75
2021-02-13 16:00:00 13.8 4 Este 8 Sudeste 0 -- -- 69
2021-02-13 15:00:00 12.9 3 Nordeste 5 Nordeste 0 -- -- 75
2021-02-13 14:00:00 13.8 2 Nordeste 4 Norte 0 -- -- 73
2021-02-13 13:00:00 13.5 0 Calma 4 Noroeste 0 -- -- 77
2021-02-13 08:00:00 10.3 3 Sur 9 Sur 0 -- -- 78
2021-02-13 07:00:00 10 5 Sudoeste 11 Sudoeste 0 -- -- 81
2021-02-13 06:00:00 10.1 5 Sudoeste 14 Sudoeste 0 -- -- 82
2021-02-13 05:00:00 9.9 11 Sudoeste 16 Sudoeste 0 -- -- 84
2021-02-13 04:00:00 10 11 Sudoeste 18 Sudoeste 0 -- -- 85
2021-02-13 03:00:00 10.1 12 Oeste 20 Sudoeste 0 -- -- 86
2021-02-13 02:00:00 10.3 11 Sudoeste 18 Sudoeste 0 -- -- 89
2021-02-13 01:00:00 10.4 10 Oeste 17 Noroeste 0 -- -- 89
2021-02-13 00:00:00 10.5 12 Oeste 25 Oeste 0 -- -- 89
2021-02-12 23:00:00 10.8 14 Oeste 26 Oeste 0 -- -- 89
2021-02-12 22:00:00 11.2 16 Oeste 30 Oeste 0 -- -- 86
2021-02-12 21:00:00 11.3 20 Oeste 40 Oeste 0 -- -- 84
2021-02-12 20:00:00 11.5 21 Oeste 37 Oeste 0 -- -- 86
2021-02-12 19:00:00 11.4 22 Oeste 42 Oeste 0 -- -- 89
2021-02-12 18:00:00 11.5 26 Oeste 49 Oeste 0 -- -- 92
2021-02-12 17:00:00 11.5 27 Oeste 46 Oeste 0.6 -- -- 94
2021-02-12 16:00:00 11.4 22 Noroeste 51 Noroeste 0.4 -- -- 94
2021-02-12 15:00:00 11.4 30 Noroeste 55 Oeste 0.8 -- -- 92
2021-02-12 14:00:00 11.6 23 Oeste 41 Oeste 1.2 -- -- 91
2021-02-12 13:00:00 12 19 Oeste 45 Oeste 0.2 -- -- 88
2021-02-12 12:00:00 11.3 31 Oeste 54 Oeste 0.4 -- -- 90
2021-02-12 11:00:00 11.7 21 Oeste 35 Oeste 1 -- -- 91
2021-02-12 10:00:00 12.2 16 Oeste 30 Oeste 0 -- -- 89
2021-02-12 09:00:00 11.6 9 Oeste 15 Oeste 0.2 -- -- 93
2021-02-12 08:00:00 11.6 8 Oeste 27 Oeste 1.2 -- -- 92
2021-02-12 07:00:00 11.8 19 Oeste 51 Noroeste 1.8 -- -- 90
2021-02-12 06:00:00 15.5 12 Oeste 38 Oeste 0 -- -- 66
2021-02-12 05:00:00 17.3 22 Oeste 44 Sudoeste 0 -- -- 55
2021-02-12 04:00:00 17.5 14 Oeste 36 Oeste 0 -- -- 55
2021-02-12 03:00:00 16.8 8 Sudoeste 34 Sur 0 -- -- 59
2021-02-12 02:00:00 17 12 Sudoeste 28 Sudoeste 0 -- -- 58
2021-02-12 01:00:00 16.1 6 Sur 17 Sur 0 -- -- 65
2021-02-12 00:00:00 15.4 7 Oeste 10 Oeste 0 -- -- 68
2021-02-11 23:00:00 15.4 2 Sur 9 Este 0 -- -- 66
2021-02-11 22:00:00 14.5 4 Sudeste 7 Sur 0 -- -- 68
2021-02-11 21:00:00 13.3 2 Oeste 6 Oeste 0 -- -- 76
2021-02-11 20:00:00 13 0 Calma 4 Este 0 -- -- 79
2021-02-11 19:00:00 14.1 3 Sudeste 12 Sudeste 0 -- -- 72
2021-02-11 18:00:00 14.5 13 Sudeste 16 Sudeste 0 -- -- 71
2021-02-11 17:00:00 18 7 Sudeste 19 Sur 0 -- -- 59
2021-02-11 16:00:00 17.8 11 Sudoeste 30 Oeste 0 -- -- 60
2021-02-11 15:00:00 18.1 12 Oeste 30 Sudoeste 0 -- -- 58
2021-02-11 14:00:00 17.6 17 Sudoeste 29 Sudoeste 0 -- -- 59
2021-02-11 13:00:00 16.6 6 Sur 25 Sur 0 -- -- 60
2021-02-11 12:00:00 15.3 9 Sudoeste 26 Sur 0 -- -- 63
2021-02-11 11:00:00 14.4 7 Oeste 33 Sudoeste 0 -- -- 63
2021-02-11 10:00:00 13.1 6 Sur 21 Sudoeste 0 -- -- 63
2021-02-11 09:00:00 11.9 5 Sudoeste 21 Oeste 0 -- -- 63
2021-02-11 08:00:00 11.4 7 Sur 25 Oeste 0 -- -- 62
2021-02-11 07:00:00 10.3 7 Oeste 19 Oeste 0 -- -- 64
2021-02-11 06:00:00 10.4 8 Sudoeste 18 Sudoeste 0 -- -- 63
2021-02-11 05:00:00 10 6 Sudoeste 18 Oeste 0 -- -- 65
2021-02-11 04:00:00 9.3 8 Sudoeste 19 Sur 0 -- -- 72
2021-02-11 03:00:00 9.3 6 Sur 13 Sur 0 -- -- 75
2021-02-11 02:00:00 8.9 6 Sur 18 Sudoeste 0 -- -- 78
2021-02-11 01:00:00 9.3 9 Sudoeste 15 Sudoeste 0 -- -- 77
2021-02-11 00:00:00 9.5 10 Sudoeste 19 Sudoeste 0 -- -- 77
2021-02-10 23:00:00 10.2 11 Sudoeste 22 Sudoeste 0 -- -- 76
2021-02-10 22:00:00 10.2 13 Oeste 20 Oeste 0 -- -- 79
2021-02-10 21:00:00 10.2 11 Oeste 26 Oeste 0 -- -- 77
2021-02-10 20:00:00 10.4 14 Oeste 26 Oeste 0 -- -- 74
2021-02-10 19:00:00 10.5 12 Oeste 20 Sudoeste 0 -- -- 73
2021-02-10 18:00:00 11 12 Oeste 25 Oeste 0 -- -- 72
2021-02-10 17:00:00 11.7 14 Oeste 36 Oeste 0 -- -- 69
2021-02-10 16:00:00 11.2 23 Oeste 46 Oeste 0 -- -- 71
2021-02-10 15:00:00 10.4 22 Oeste 41 Sudoeste 0 -- -- 78
2021-02-10 14:00:00 9.9 24 Oeste 53 Oeste 0 -- -- 80
2021-02-10 13:00:00 9.8 26 Oeste 49 Oeste 0 -- -- 75
2021-02-10 12:00:00 9.7 31 Oeste 55 Oeste 0 -- -- 72
2021-02-10 11:00:00 10 22 Oeste 36 Oeste 0 -- -- 67
2021-02-10 10:00:00 9.1 22 Oeste 41 Oeste 0 -- -- 71
2021-02-10 09:00:00 8.3 22 Oeste 46 Oeste 0.2 -- -- 78
2021-02-10 08:00:00 8.7 20 Oeste 30 Sudoeste 0 -- -- 76
2021-02-10 07:00:00 8.6 10 Oeste 16 Oeste 0 -- -- 72
2021-02-10 06:00:00 8.8 2 Oeste 8 Oeste 0 -- -- 78
2021-02-10 05:00:00 8.9 4 Oeste 12 Oeste 0 -- -- 78
2021-02-10 04:00:00 9.8 2 Sur 30 Oeste 0 -- -- 57
2021-02-10 03:00:00 10.5 23 Oeste 45 Oeste 0 -- -- 55
2021-02-10 02:00:00 9.7 17 Sudoeste 30 Oeste 0 -- -- 61
2021-02-10 01:00:00 9.8 10 Sudoeste 22 Sudoeste 0 -- -- 63
2021-02-10 00:00:00 10.4 9 Oeste 26 Sudoeste 0.2 -- -- 61
2021-02-09 23:00:00 10.3 9 Sur 22 Sudoeste 0 -- -- 63
2021-02-09 22:00:00 10.5 13 Sudoeste 22 Sur 0 -- -- 61
2021-02-09 21:00:00 10.5 14 Sudoeste 26 Oeste 0 -- -- 58
2021-02-09 20:00:00 10.5 7 Sur 26 Sudoeste 0 -- -- 58
2021-02-09 19:00:00 11.2 19 Sudoeste 38 Sudoeste 0 -- -- 55
2021-02-09 18:00:00 12 23 Sudoeste 45 Oeste 0 -- -- 54
2021-02-09 17:00:00 12.7 29 Sudoeste 48 Sudoeste 0 -- -- 59
2021-02-09 16:00:00 11.4 3 Este 27 Sur 0 -- -- 80
2021-02-09 15:00:00 11.8 14 Oeste 39 Oeste 0.4 -- -- 73
2021-02-09 14:00:00 11.7 16 Sudoeste 42 Oeste 0.2 -- -- 72
2021-02-09 13:00:00 14 18 Oeste 47 Oeste 0 -- -- 56
2021-02-09 12:00:00 13.9 17 Sudoeste 43 Sudoeste 0 -- -- 56
2021-02-09 11:00:00 13.5 24 Sudoeste 50 Oeste 0 -- -- 57
2021-02-09 10:00:00 12.9 23 Sudoeste 62 Oeste 0 -- -- 58
2021-02-09 09:00:00 11.9 29 Sudoeste 58 Sudoeste 0 -- -- 60
2021-02-09 08:00:00 10.9 11 Oeste 32 Oeste 0 -- -- 62
2021-02-09 07:00:00 10.8 9 Sudoeste 28 Sudoeste 0 -- -- 67
2021-02-09 06:00:00 11.6 19 Oeste 37 Sudoeste 0 -- -- 62
2021-02-09 05:00:00 11.1 14 Sudoeste 42 Sudoeste 0 -- -- 65
2021-02-09 04:00:00 10.3 12 Sudoeste 26 Sudoeste 0 -- -- 68
2021-02-09 03:00:00 10.3 12 Sudoeste 27 Sudoeste 0 -- -- 68
2021-02-09 02:00:00 10.6 18 Sudoeste 27 Sudoeste 0 -- -- 68
2021-02-09 01:00:00 10.2 12 Oeste 21 Sudoeste 0 -- -- 73
2021-02-09 00:00:00 10 13 Sudoeste 26 Oeste 0 -- -- 75
2021-02-08 23:00:00 10.3 13 Oeste 28 Oeste 0 -- -- 77
2021-02-08 22:00:00 10.1 13 Sudoeste 37 Oeste 0.2 -- -- 80
2021-02-08 21:00:00 10.5 13 Oeste 24 Oeste 0.2 -- -- 79
2021-02-08 20:00:00 10.8 14 Oeste 29 Oeste 0 -- -- 73
2021-02-08 19:00:00 10.8 19 Oeste 31 Oeste 0 -- -- 69
2021-02-08 18:00:00 11.3 14 Oeste 25 Oeste 0 -- -- 70
2021-02-08 17:00:00 11.7 12 Oeste 23 Noroeste 0 -- -- 71
2021-02-08 16:00:00 11.9 14 Oeste 32 Oeste 0 -- -- 67
2021-02-08 15:00:00 12.2 10 Noroeste 21 Oeste 0 -- -- 69
2021-02-08 14:00:00 13.5 12 Oeste 31 Oeste 0 -- -- 63
2021-02-08 13:00:00 13 15 Oeste 30 Oeste 0 -- -- 65
2021-02-08 12:00:00 11.9 12 Oeste 29 Oeste 0 -- -- 72
2021-02-08 11:00:00 11.1 16 Oeste 28 Sudoeste 0 -- -- 75
2021-02-08 10:00:00 10.3 17 Sudoeste 31 Oeste 0 -- -- 78
2021-02-08 09:00:00 10.1 15 Sudoeste 24 Sudoeste 0.2 -- -- 79
2021-02-08 08:00:00 11.4 12 Oeste 34 Sudoeste 0 -- -- 68
2021-02-08 07:00:00 11 19 Sudoeste 42 Sudoeste 0 -- -- 70
2021-02-08 06:00:00 10.4 19 Sudoeste 35 Sudoeste 0 -- -- 73
2021-02-08 05:00:00 10.3 20 Oeste 42 Oeste 0 -- -- 75
2021-02-08 04:00:00 10.6 21 Sudoeste 45 Sudoeste 0 -- -- 70
2021-02-08 03:00:00 10.6 24 Oeste 43 Sudoeste 0 -- -- 69
2021-02-08 02:00:00 9.8 26 Sudoeste 45 Oeste 0.2 -- -- 71
2021-02-08 01:00:00 9.3 22 Sudoeste 48 Oeste 0 -- -- 74
2021-02-08 00:00:00 9.1 18 Sudoeste 33 Sudoeste 0 -- -- 73
2021-02-07 23:00:00 8.3 9 Sudoeste 21 Oeste 0 -- -- 80
2021-02-07 22:00:00 7.8 10 Sudoeste 21 Sur 0.6 -- -- 84
2021-02-07 21:00:00 8.2 8 Sudoeste 15 Sudoeste 0.4 -- -- 77
2021-02-07 20:00:00 8 5 Sur 11 Sur 0 -- -- 79
2021-02-07 19:00:00 8 9 Sur 13 Sudeste 0 -- -- 81
2021-02-07 18:00:00 8.4 0 Calma 14 Noroeste 0 -- -- 77
2021-02-07 17:00:00 8.9 6 Oeste 18 Noroeste 0.2 -- -- 74
2021-02-07 16:00:00 10.9 4 Noroeste 12 Noroeste 0 -- -- 68
2021-02-07 15:00:00 10.9 8 Oeste 22 Oeste 0 -- -- 61
2021-02-07 14:00:00 10.4 12 Oeste 28 Oeste 0 -- -- 64
2021-02-07 13:00:00 9.8 18 Oeste 32 Sudoeste 0 -- -- 65
2021-02-07 12:00:00 9 19 Oeste 33 Oeste 0 -- -- 71
2021-02-07 11:00:00 7.7 19 Oeste 34 Sudoeste 0 -- -- 78
2021-02-07 10:00:00 7.1 21 Oeste 38 Sudoeste 0 -- -- 80
2021-02-07 09:00:00 6.7 19 Oeste 34 Sudoeste 0 -- -- 81
2021-02-07 08:00:00 6.5 20 Oeste 35 Oeste 0 -- -- 82
2021-02-07 07:00:00 6.4 26 Oeste 48 Oeste 0 -- -- 83
2021-02-07 06:00:00 6.2 22 Oeste 37 Oeste 0 -- -- 84
2021-02-07 05:00:00 6.2 24 Oeste 40 Oeste 0.2 -- -- 85
2021-02-07 04:00:00 6.2 21 Oeste 41 Oeste 0 -- -- 86
2021-02-07 03:00:00 6 22 Oeste 36 Sudoeste 0 -- -- 86
2021-02-07 02:00:00 6.5 18 Oeste 29 Oeste 0 -- -- 81
2021-02-07 01:00:00 6.6 16 Oeste 35 Oeste 0 -- -- 81
2021-02-07 00:00:00 6.4 15 Oeste 27 Oeste 0 -- -- 86
2021-02-06 23:00:00 6.2 15 Oeste 39 Oeste 1.2 -- -- 87
2021-02-06 22:00:00 7.1 17 Oeste 41 Noroeste 0.2 -- -- 83
2021-02-06 21:00:00 7.7 14 Oeste 28 Noroeste 0 -- -- 85
2021-02-06 20:00:00 8 18 Noroeste 36 Noroeste 0 -- -- 82
2021-02-06 19:00:00 7.8 12 Noroeste 32 Oeste 0 -- -- 92
2021-02-06 18:00:00 7.7 14 Noroeste 29 Noroeste 0.2 -- -- 97
2021-02-06 17:00:00 7.5 17 Oeste 44 Oeste 1.4 -- -- 98
2021-02-06 16:00:00 8 30 Noroeste 51 Oeste 2.6 -- -- 98
2021-02-06 15:00:00 8.6 22 Noroeste 54 Noroeste 2 -- -- 98
2021-02-06 14:00:00 9 23 Noroeste 46 Noroeste 4 -- -- 98
2021-02-06 13:00:00 9.6 18 Noroeste 37 Noroeste 13.8 -- -- 97
2021-02-06 12:00:00 10.4 5 Nordeste 14 Este 4.2 -- -- 97
2021-02-06 11:00:00 10.3 0 Calma 13 Este 0.8 -- -- 97
2021-02-06 10:00:00 10.4 6 Este 14 Este 5.2 -- -- 97
2021-02-06 09:00:00 10.4 2 Sudeste 10 Nordeste 4 -- -- 97
2021-02-06 08:00:00 10.3 2 Este 7 Este 1 -- -- 97
2021-02-06 07:00:00 10.4 4 Este 13 Este 0.2 -- -- 97
2021-02-06 06:00:00 10.5 5 Este 8 Nordeste 0.2 -- -- 97
2021-02-06 05:00:00 10.5 5 Nordeste 8 Nordeste 0 -- -- 97
2021-02-06 04:00:00 10.5 0 Calma 10 Este 0 -- -- 97
2021-02-06 03:00:00 10.6 6 Este 10 Nordeste 0 -- -- 97
2021-02-06 02:00:00 10.4 3 Este 5 Este 0 -- -- 97
2021-02-06 01:00:00 10.2 3 Sudoeste 5 Oeste 0 -- -- 97
2021-02-06 00:00:00 10.2 0 Calma 8 Sudeste 0 -- -- 97
2021-02-05 23:00:00 10.2 5 Sudeste 9 Este 0 -- -- 97
2021-02-05 22:00:00 10.2 5 Este 9 Este 0 -- -- 97
2021-02-05 21:00:00 10.2 0 Calma 8 Este 0 -- -- 97
2021-02-05 20:00:00 10.2 4 Este 9 Este 0 -- -- 97
2021-02-05 19:00:00 10.2 3 Nordeste 12 Nordeste 0 -- -- 97
2021-02-05 18:00:00 10.4 3 Este 11 Nordeste 0 -- -- 97
2021-02-05 17:00:00 10.5 4 Nordeste 12 Este 0 -- -- 97
2021-02-05 16:00:00 10.7 6 Este 13 Este 0 -- -- 96
2021-02-05 15:00:00 10.8 5 Nordeste 15 Nordeste 0 -- -- 96
2021-02-05 14:00:00 11.1 5 Nordeste 12 Norte 0 -- -- 96
2021-02-05 13:00:00 11.1 8 Oeste 13 Oeste 0 -- -- 96
2021-02-05 12:00:00 11.1 3 Nordeste 4 Nordeste 0 -- -- 96
2021-02-05 11:00:00 11 0 Calma 4 Nordeste 0 -- -- 96
2021-02-05 10:00:00 10.9 2 Norte 4 Nordeste 0.2 -- -- 96
2021-02-05 09:00:00 10.5 3 Sur 10 Oeste 0 -- -- 96
2021-02-05 08:00:00 10.4 6 Oeste 9 Oeste 0.2 -- -- 96
2021-02-05 07:00:00 10.5 6 Este 10 Este 0.4 -- -- 96
2021-02-05 06:00:00 10.5 2 Este 17 Nordeste 0.2 -- -- 96
2021-02-05 05:00:00 10.5 4 Norte 9 Nordeste 0.2 -- -- 96
2021-02-05 04:00:00 10.2 4 Oeste 9 Oeste 0 -- -- 95
2021-02-05 03:00:00 10.2 5 Oeste 6 Oeste 0 -- -- 95
2021-02-05 02:00:00 10.2 3 Oeste 5 Oeste 0 -- -- 94
2021-02-05 01:00:00 10.2 3 Este 5 Este 0 -- -- 94
2021-02-05 00:00:00 10.1 3 Oeste 10 Oeste 0 -- -- 94
2021-02-04 23:00:00 10.1 4 Noroeste 18 Oeste 0 -- -- 94
2021-02-04 22:00:00 10.4 15 Oeste 30 Oeste 1.6 -- -- 93
2021-02-04 21:00:00 11.3 15 Oeste 28 Oeste 0 -- -- 92
2021-02-04 20:00:00 11.8 12 Oeste 17 Oeste 0 -- -- 92
2021-02-04 19:00:00 11.8 8 Oeste 13 Noroeste 0 -- -- 92
2021-02-04 18:00:00 12.3 4 Oeste 8 Sudoeste 0 -- -- 89
2021-02-04 17:00:00 12.6 4 Nordeste 10 Nordeste 0 -- -- 87
2021-02-04 16:00:00 13.1 3 Norte 7 Oeste 0 -- -- 82
2021-02-04 15:00:00 14.6 2 Oeste 5 Oeste 0 -- -- 74
2021-02-04 14:00:00 14.4 0 Calma 7 Este 0 -- -- 70
2021-02-04 13:00:00 14.4 2 Oeste 7 Este 0 -- -- 71
2021-02-04 12:00:00 14.1 4 Este 14 Sur 0 -- -- 68
2021-02-04 11:00:00 14.3 5 Sur 14 Sudeste 0 -- -- 65
2021-02-04 10:00:00 14.3 3 Sur 17 Sur 0 -- -- 61
2021-02-04 09:00:00 14.5 5 Sur 27 Oeste 0 -- -- 61
2021-02-04 08:00:00 14.7 9 Sur 22 Sur 0 -- -- 60
2021-02-04 07:00:00 14.7 10 Oeste 28 Oeste 0 -- -- 59
2021-02-04 06:00:00 15 18 Oeste 34 Oeste 0 -- -- 56
2021-02-04 05:00:00 15 17 Oeste 35 Oeste 0 -- -- 56
2021-02-04 04:00:00 14.4 14 Sudoeste 26 Sudoeste 0 -- -- 61
2021-02-04 03:00:00 14.7 13 Sudoeste 31 Sur 0 -- -- 59
2021-02-04 02:00:00 14.7 15 Sudoeste 38 Sudoeste 0 -- -- 62
2021-02-04 01:00:00 13.8 14 Sudoeste 34 Sudoeste 0 -- -- 67
2021-02-04 00:00:00 13.4 12 Oeste 39 Sudoeste 0 -- -- 73
2021-02-03 23:00:00 14.6 13 Sudoeste 36 Sudoeste 0 -- -- 62
2021-02-03 22:00:00 14.8 12 Sudoeste 33 Oeste 0 -- -- 60
2021-02-03 21:00:00 11.6 0 Calma 13 Este 0 -- -- 76
2021-02-03 20:00:00 11.8 8 Sudeste 21 Este 0 -- -- 77
2021-02-03 19:00:00 12.2 14 Este 28 Este 0 -- -- 70
2021-02-03 18:00:00 12.5 18 Este 33 Este 0 -- -- 72
2021-02-03 17:00:00 13.1 20 Este 31 Este 0 -- -- 73
2021-02-03 16:00:00 13.9 21 Este 31 Este 0 -- -- 73
2021-02-03 15:00:00 15.3 18 Este 30 Este 0 -- -- 72
2021-02-03 14:00:00 15.7 15 Este 27 Este 0 -- -- 73
2021-02-03 13:00:00 15.7 13 Este 26 Sudeste 0 -- -- 72
2021-02-03 12:00:00 16.4 8 Nordeste 34 Oeste 0 -- -- 68
2021-02-03 11:00:00 16.2 14 Oeste 38 Oeste 0 -- -- 61
2021-02-03 10:00:00 16.7 12 Oeste 30 Oeste 0 -- -- 55
2021-02-03 09:00:00 16.1 17 Oeste 44 Oeste 0 -- -- 57
2021-02-03 08:00:00 16 22 Oeste 43 Oeste 0 -- -- 56
2021-02-03 07:00:00 16.1 22 Sudoeste 53 Sudoeste 0 -- -- 56
2021-02-03 06:00:00 16.2 19 Sudoeste 48 Sur 0 -- -- 55
2021-02-03 05:00:00 16.5 24 Sudoeste 68 Sudoeste 0 -- -- 53
2021-02-03 04:00:00 16.4 30 Sudoeste 63 Oeste 0 -- -- 51
2021-02-03 03:00:00 16.7 21 Sudoeste 52 Oeste 0 -- -- 49
2021-02-03 02:00:00 16.7 24 Oeste 51 Oeste 0 -- -- 49
2021-02-03 01:00:00 16.8 19 Sudoeste 62 Oeste 0 -- -- 51
2021-02-03 00:00:00 17 19 Sudoeste 67 Sudoeste 0 -- -- 52
2021-02-02 23:00:00 16.9 19 Sudoeste 42 Oeste 0 -- -- 54
2021-02-02 22:00:00 16.7 12 Sudoeste 37 Sudoeste 0 -- -- 55
2021-02-02 21:00:00 16.9 23 Oeste 52 Sudoeste 0.2 -- -- 55
2021-02-02 20:00:00 16.9 18 Sudoeste 43 Sur 0 -- -- 53
2021-02-02 19:00:00 16.2 18 Sudoeste 42 Oeste 0 -- -- 57
2021-02-02 18:00:00 15.4 18 Sudoeste 39 Sur 0 -- -- 65
2021-02-02 17:00:00 15.5 15 Sudoeste 43 Sudoeste 0 -- -- 67
2021-02-02 16:00:00 17.3 27 Oeste 47 Oeste 0 -- -- 58
2021-02-02 15:00:00 18.5 15 Oeste 45 Oeste 0 -- -- 53
2021-02-02 14:00:00 19.1 18 Sudoeste 40 Noroeste 0 -- -- 52
2021-02-02 13:00:00 18.1 15 Sudoeste 51 Sudoeste 0 -- -- 55
2021-02-02 12:00:00 17.1 23 Sudoeste 41 Oeste 0 -- -- 57
2021-02-02 11:00:00 16.3 24 Sudoeste 45 Sudoeste 0 -- -- 61
2021-02-02 10:00:00 15.8 10 Oeste 26 Oeste 0 -- -- 62
2021-02-02 09:00:00 15.4 9 Oeste 42 Oeste 0 -- -- 63
2021-02-02 08:00:00 15.1 21 Sudoeste 42 Sudoeste 0 -- -- 64
2021-02-02 07:00:00 14.1 12 Oeste 28 Oeste 0 -- -- 69
2021-02-02 06:00:00 13.9 8 Sudoeste 15 Sur 0 -- -- 70
2021-02-02 05:00:00 13.9 9 Sur 21 Sudoeste 0 -- -- 70
2021-02-02 04:00:00 13.6 10 Sudoeste 22 Sudoeste 0 -- -- 70
2021-02-02 03:00:00 14 15 Sudoeste 33 Sudoeste 0 -- -- 69
2021-02-02 02:00:00 14.3 19 Sudoeste 32 Sudoeste 0 -- -- 71
2021-02-02 01:00:00 15 18 Sudoeste 32 Sudoeste 0 -- -- 70
2021-02-02 00:00:00 14.8 17 Sudoeste 30 Sudoeste 0 -- -- 73
2021-02-01 23:00:00 13.7 7 Sudoeste 16 Sudoeste 0 -- -- 81
2021-02-01 22:00:00 12.9 9 Sur 16 Sudoeste 0 -- -- 85
2021-02-01 21:00:00 12.4 4 Sur 17 Oeste 0.2 -- -- 85
2021-02-01 20:00:00 12.5 9 Oeste 20 Oeste 1.4 -- -- 86
2021-02-01 19:00:00 13.9 2 Oeste 14 Oeste 0.2 -- -- 77
2021-02-01 18:00:00 14.5 4 Oeste 27 Oeste 0 -- -- 72
2021-02-01 17:00:00 15 13 Oeste 32 Noroeste 0 -- -- 71
2021-02-01 16:00:00 14.4 15 Oeste 44 Oeste 0 -- -- 74
2021-02-01 15:00:00 14.1 20 Oeste 55 Oeste 0 -- -- 75
2021-02-01 14:00:00 14 36 Oeste 69 Oeste 0 -- -- 73
2021-02-01 13:00:00 14.1 33 Oeste 57 Oeste 0 -- -- 71
2021-02-01 12:00:00 13.9 30 Oeste 72 Oeste 0 -- -- 73
2021-02-01 11:00:00 13.5 25 Oeste 48 Oeste 0 -- -- 72
2021-02-01 10:00:00 13.4 29 Oeste 63 Oeste 0 -- -- 69
2021-02-01 09:00:00 13.3 40 Oeste 79 Oeste 0 -- -- 65
2021-02-01 08:00:00 13.6 35 Oeste 70 Oeste 0 -- -- 61
2021-02-01 07:00:00 13.4 29 Oeste 71 Oeste 0 -- -- 64
2021-02-01 06:00:00 13.3 33 Oeste 69 Oeste 0 -- -- 66
2021-02-01 05:00:00 13.3 33 Oeste 68 Oeste 0 -- -- 67
2021-02-01 04:00:00 13.1 31 Oeste 68 Oeste 0 -- -- 69
2021-02-01 03:00:00 13.1 40 Oeste 75 Oeste 0 -- -- 70
2021-02-01 02:00:00 12.8 26 Oeste 57 Oeste 0 -- -- 72
2021-02-01 01:00:00 13.1 39 Oeste 81 Oeste 0 -- -- 70
2021-02-01 00:00:00 14.1 27 Oeste 54 Oeste 0 -- -- 67